Terminal Aerodrome Forecast
Issued by NWS Chicago, IL

Home | Current Version | Previous Version | Graphics & Text | Print | Product List | Glossary On
Versions: 1 2 3 4 5 6 7 8 9 10 11 12 13 14 15 16 17 18 19 20 21 22 23 24 25 26
794
FTUS43 KLOT 180523
TAFRFD
TAF
KRFD 180523Z 1806/1906 21008KT P6SM SCT250 WS007/25045KT
     FM180900 26006KT P6SM FEW250
     FM182100 31006KT P6SM FEW250=

USA.gov is the U.S. government's official web portal to all federal, state and local government web resources and services.